createdAt,value
2018-12-19T00:00:12.753Z,28.50
2018-12-19T00:02:45.352Z,32.87
2018-12-19T00:05:17.922Z,36.37
2018-12-19T00:07:50.539Z,24.40
2018-12-19T00:10:23.080Z,29.53
2018-12-19T00:12:55.660Z,41.67
2018-12-19T00:15:28.252Z,48.47
2018-12-19T00:18:01.135Z,27.10
2018-12-19T00:20:33.763Z,43.83
2018-12-19T00:23:06.355Z,39.30
2018-12-19T00:25:38.916Z,55.73
2018-12-19T00:28:11.490Z,29.53
2018-12-19T00:30:44.041Z,52.10
2018-12-19T00:33:16.627Z,40.60
2018-12-19T00:35:49.228Z,29.30
2018-12-19T00:38:21.825Z,22.03
2018-12-19T00:40:54.376Z,27.03
2018-12-19T00:43:26.947Z,26.43
2018-12-19T00:45:59.548Z,27.50
2018-12-19T00:48:32.218Z,27.53
2018-12-19T00:51:04.800Z,39.40
2018-12-19T00:53:37.516Z,27.50
2018-12-19T00:56:10.078Z,25.00
2018-12-19T00:58:42.671Z,29.13
2018-12-19T01:01:15.229Z,29.10
2018-12-19T01:03:47.919Z,26.37
2018-12-19T01:06:20.860Z,25.03
2018-12-19T01:08:53.417Z,30.60
2018-12-19T01:11:25.998Z,28.90
2018-12-19T01:13:58.617Z,29.43
2018-12-19T01:16:31.202Z,25.03
2018-12-19T01:19:03.784Z,37.97
2018-12-19T01:21:36.353Z,29.53
2018-12-19T01:24:09.029Z,23.93
2018-12-19T01:26:41.625Z,22.50
2018-12-19T01:29:14.192Z,27.27
2018-12-19T01:31:46.716Z,29.97
2018-12-19T01:34:19.275Z,20.97
2018-12-19T01:36:51.850Z,31.17
2018-12-19T01:39:24.445Z,24.53
2018-12-19T01:41:56.980Z,25.20
2018-12-19T01:44:29.550Z,31.33
2018-12-19T01:47:02.115Z,25.33
2018-12-19T01:49:34.811Z,39.27
2018-12-19T01:52:07.386Z,28.13
2018-12-19T01:54:40.071Z,25.80
2018-12-19T01:57:12.638Z,24.63
2018-12-19T01:59:45.438Z,29.00
2018-12-19T02:02:17.984Z,32.00
2018-12-19T02:04:50.656Z,29.00
2018-12-19T02:07:23.214Z,25.77
2018-12-19T02:09:55.786Z,23.00
2018-12-19T02:12:28.323Z,26.60
2018-12-19T02:15:00.988Z,36.63
2018-12-19T02:17:33.542Z,27.60
2018-12-19T02:20:06.404Z,26.83
2018-12-19T02:22:38.937Z,24.73
2018-12-19T02:25:11.518Z,22.13
2018-12-19T02:27:44.100Z,20.93
2018-12-19T02:30:16.805Z,26.27
2018-12-19T02:32:49.342Z,26.77
2018-12-19T02:35:22.020Z,24.87
2018-12-19T02:37:54.637Z,22.57
2018-12-19T02:40:27.209Z,27.10
2018-12-19T02:42:59.743Z,21.47
2018-12-19T02:45:32.323Z,28.40
2018-12-19T02:48:04.848Z,24.40
2018-12-19T02:50:37.677Z,26.77
2018-12-19T02:53:10.222Z,30.47
2018-12-19T02:55:42.810Z,27.93
2018-12-19T02:58:15.344Z,24.37
2018-12-19T03:00:48.002Z,23.03
2018-12-19T03:03:20.567Z,37.13
2018-12-19T03:05:53.204Z,29.87
2018-12-19T03:08:25.742Z,29.03
2018-12-19T03:10:58.507Z,31.87
2018-12-19T03:13:31.266Z,26.70
2018-12-19T03:16:03.929Z,22.50
2018-12-19T03:18:36.475Z,22.60
2018-12-19T03:21:09.052Z,29.53
2018-12-19T03:23:41.585Z,22.23
2018-12-19T03:26:14.143Z,28.60
2018-12-19T03:28:46.704Z,41.70
2018-12-19T03:31:19.606Z,25.93
2018-12-19T03:33:52.142Z,25.30
2018-12-19T03:36:24.804Z,24.70
2018-12-19T03:38:57.361Z,23.90
2018-12-19T03:41:30.043Z,22.77
2018-12-19T03:44:02.599Z,23.17
2018-12-19T03:46:35.238Z,22.47
2018-12-19T03:49:07.773Z,22.27
2018-12-19T03:51:40.907Z,31.30
2018-12-19T03:54:13.591Z,28.47
2018-12-19T03:56:46.781Z,26.83
2018-12-19T03:59:19.326Z,28.17
2018-12-19T04:01:51.900Z,21.00
2018-12-19T04:04:24.507Z,28.00
2018-12-19T04:06:57.291Z,22.27
2018-12-19T04:09:30.060Z,25.10
2018-12-19T04:12:02.622Z,19.17
2018-12-19T04:14:35.221Z,22.57
2018-12-19T04:17:07.813Z,24.13
2018-12-19T04:19:40.357Z,19.97
2018-12-19T04:22:12.931Z,24.00
2018-12-19T04:24:45.463Z,23.97
2018-12-19T04:27:18.025Z,19.27
2018-12-19T04:29:50.739Z,18.67
2018-12-19T04:32:23.674Z,18.90
2018-12-19T04:34:56.266Z,21.50
2018-12-19T04:37:28.842Z,20.10
2018-12-19T04:40:05.480Z,17.80
2018-12-19T04:42:36.093Z,19.00
2018-12-19T04:45:08.783Z,19.20
2018-12-19T04:47:41.356Z,19.10
2018-12-19T04:50:13.903Z,19.83
2018-12-19T04:52:46.561Z,20.83
2018-12-19T04:55:19.879Z,18.37
2018-12-19T04:57:52.594Z,20.43
2018-12-19T05:00:25.153Z,18.83
2018-12-19T05:02:57.795Z,18.53
2018-12-19T05:05:30.459Z,18.27
2018-12-19T05:08:03.206Z,18.97
2018-12-19T05:10:35.747Z,22.60
2018-12-19T05:13:08.585Z,17.57
2018-12-19T05:15:41.127Z,16.17
2018-12-19T05:18:13.735Z,18.63
2018-12-19T05:20:46.282Z,16.33
2018-12-19T05:23:18.932Z,19.87
2018-12-19T05:25:51.479Z,17.00
2018-12-19T05:28:24.207Z,18.63
2018-12-19T05:30:56.761Z,18.33
2018-12-19T05:33:29.329Z,28.30
2018-12-19T05:36:01.901Z,21.93
2018-12-19T05:38:34.592Z,18.87
2018-12-19T05:41:07.125Z,17.80
2018-12-19T05:43:39.770Z,19.60
2018-12-19T05:46:12.323Z,17.10
2018-12-19T05:48:44.997Z,16.77
2018-12-19T05:51:17.535Z,17.40
2018-12-19T05:53:50.128Z,18.07
2018-12-19T05:56:22.717Z,17.63
2018-12-19T05:58:55.305Z,25.63
2018-12-19T06:01:27.880Z,14.83
2018-12-19T06:04:00.448Z,15.30
2018-12-19T06:06:33.003Z,17.83
2018-12-19T06:09:06.443Z,18.93
2018-12-19T06:11:39.000Z,18.03
2018-12-19T06:14:11.705Z,15.43
2018-12-19T06:16:44.283Z,18.63
2018-12-19T06:19:16.960Z,17.47
2018-12-19T06:21:49.498Z,16.77
2018-12-19T06:24:22.079Z,18.40
2018-12-19T06:26:54.626Z,14.03
2018-12-19T06:29:27.444Z,26.57
2018-12-19T06:31:59.995Z,15.10
2018-12-19T06:34:32.649Z,15.67
2018-12-19T06:37:05.237Z,27.27
2018-12-19T06:39:37.802Z,15.27
2018-12-19T06:42:10.362Z,15.40
2018-12-19T06:44:42.956Z,14.10
2018-12-19T06:47:15.486Z,19.33
2018-12-19T06:49:48.114Z,13.90
2018-12-19T06:52:20.663Z,14.97
2018-12-19T06:54:53.312Z,15.33
2018-12-19T06:57:25.894Z,11.77
2018-12-19T06:59:58.471Z,13.30
2018-12-19T07:02:31.021Z,13.53
2018-12-19T07:05:04.267Z,12.60
2018-12-19T07:07:36.798Z,14.93
2018-12-19T07:10:09.471Z,15.53
2018-12-19T07:12:42.007Z,12.60
2018-12-19T07:15:14.709Z,12.57
2018-12-19T07:17:47.371Z,11.57
2018-12-19T07:20:20.063Z,12.90
2018-12-19T07:22:52.639Z,12.60
2018-12-19T07:25:25.327Z,11.30
2018-12-19T07:27:57.916Z,14.73
2018-12-19T07:30:30.749Z,12.20
2018-12-19T07:33:03.479Z,12.43
2018-12-19T07:35:36.129Z,11.57
2018-12-19T07:38:08.667Z,12.67
2018-12-19T07:40:45.693Z,11.07
2018-12-19T07:43:15.904Z,17.27
2018-12-19T07:45:48.449Z,13.23
2018-12-19T07:48:21.166Z,13.37
2018-12-19T07:50:53.727Z,9.80
2018-12-19T07:53:26.277Z,12.53
2018-12-19T07:56:00.106Z,11.23
2018-12-19T07:58:32.660Z,12.07
2018-12-19T08:01:05.229Z,13.03
2018-12-19T08:03:37.775Z,10.97
2018-12-19T08:06:10.348Z,12.33
2018-12-19T08:08:42.955Z,10.77
2018-12-19T08:11:15.543Z,12.37
2018-12-19T08:13:48.085Z,12.13
2018-12-19T08:16:20.659Z,13.10
2018-12-19T08:18:53.229Z,11.40
2018-12-19T08:21:25.795Z,10.17
2018-12-19T08:23:58.359Z,12.23
2018-12-19T08:26:30.929Z,12.37
2018-12-19T08:29:03.470Z,12.77
2018-12-19T08:31:36.211Z,14.33
2018-12-19T08:34:08.800Z,11.90
2018-12-19T08:36:41.970Z,11.77
2018-12-19T08:39:14.663Z,12.67
2018-12-19T08:41:47.549Z,12.20
2018-12-19T08:44:20.094Z,14.03
2018-12-19T08:46:52.803Z,13.73
2018-12-19T08:49:25.331Z,12.17
2018-12-19T08:51:58.035Z,11.70
2018-12-19T08:54:30.598Z,19.83
2018-12-19T08:57:03.161Z,15.43
2018-12-19T08:59:35.762Z,12.30
2018-12-19T09:02:08.323Z,11.97
2018-12-19T09:04:40.864Z,13.57
2018-12-19T09:07:13.443Z,11.83
2018-12-19T09:09:45.983Z,14.37
2018-12-19T09:12:18.564Z,20.10
2018-12-19T09:14:51.103Z,14.63
2018-12-19T09:17:24.125Z,17.00
2018-12-19T09:19:56.716Z,18.13
2018-12-19T09:22:29.584Z,17.23
2018-12-19T09:25:02.206Z,15.10
2018-12-19T09:27:34.812Z,12.73
2018-12-19T09:30:07.361Z,14.53
2018-12-19T09:32:39.914Z,14.23
2018-12-19T09:35:12.454Z,15.37
2018-12-19T09:37:45.052Z,14.70
2018-12-19T09:40:17.586Z,15.67
2018-12-19T09:42:50.197Z,22.50
2018-12-19T09:45:22.771Z,19.00
2018-12-19T09:47:55.443Z,19.83
2018-12-19T09:50:27.985Z,14.03
2018-12-19T09:53:00.552Z,15.37
2018-12-19T09:55:33.100Z,13.60
2018-12-19T09:58:06.020Z,14.57
2018-12-19T10:00:38.604Z,14.90
2018-12-19T10:03:11.161Z,13.93
2018-12-19T10:05:43.730Z,18.70
2018-12-19T10:08:16.428Z,13.07
2018-12-19T10:10:49.004Z,17.20
2018-12-19T10:13:21.676Z,14.23
2018-12-19T10:15:54.249Z,13.07
2018-12-19T10:18:26.981Z,15.47
2018-12-19T10:20:59.526Z,16.00
2018-12-19T10:23:32.171Z,14.03
2018-12-19T10:26:10.419Z,16.60
2018-12-19T10:28:42.997Z,13.23
2018-12-19T10:31:15.546Z,18.50
2018-12-19T10:33:48.154Z,21.97
2018-12-19T10:36:22.745Z,15.03
2018-12-19T10:38:55.682Z,14.83
2018-12-19T10:41:28.262Z,14.07
2018-12-19T10:44:00.897Z,14.43
2018-12-19T10:46:33.565Z,18.43
2018-12-19T10:49:06.188Z,13.30
2018-12-19T10:51:38.720Z,14.07
2018-12-19T10:54:11.310Z,12.33
2018-12-19T10:56:43.898Z,12.33
2018-12-19T10:59:16.489Z,13.43
2018-12-19T11:01:49.049Z,17.17
2018-12-19T11:04:21.651Z,19.83
2018-12-19T11:06:54.190Z,15.30
2018-12-19T11:09:26.755Z,16.13
2018-12-19T11:11:59.343Z,15.70
2018-12-19T11:14:32.696Z,13.57
2018-12-19T11:17:05.685Z,13.87
2018-12-19T11:19:38.258Z,15.13
2018-12-19T11:22:10.941Z,15.23
2018-12-19T11:24:43.628Z,14.77
2018-12-19T11:27:16.183Z,15.17
2018-12-19T11:29:48.976Z,12.87
2018-12-19T11:32:21.513Z,13.87
2018-12-19T11:34:54.082Z,14.93
2018-12-19T11:37:26.848Z,16.03
2018-12-19T11:39:59.434Z,14.00
2018-12-19T11:42:31.978Z,15.23
2018-12-19T11:45:05.203Z,13.43
2018-12-19T11:47:37.768Z,13.83
2018-12-19T11:50:10.328Z,12.93
2018-12-19T11:52:42.864Z,14.00
2018-12-19T11:55:15.471Z,12.87
2018-12-19T11:57:48.025Z,14.20
2018-12-19T12:00:20.583Z,14.73
2018-12-19T12:02:53.154Z,13.10
2018-12-19T12:05:25.769Z,14.77
2018-12-19T12:07:58.336Z,13.80
2018-12-19T12:10:31.069Z,13.50
2018-12-19T12:13:03.617Z,12.60
2018-12-19T12:15:36.219Z,13.50
2018-12-19T12:18:08.763Z,13.80
2018-12-19T12:20:41.338Z,12.80
2018-12-19T12:23:13.887Z,13.83
2018-12-19T12:25:46.456Z,13.07
2018-12-19T12:28:19.042Z,15.20
2018-12-19T12:30:52.294Z,12.90
2018-12-19T12:33:25.352Z,17.63
2018-12-19T12:35:58.191Z,14.90
2018-12-19T12:38:34.044Z,13.03
2018-12-19T12:41:05.616Z,13.27
2018-12-19T12:43:38.155Z,14.47
2018-12-19T12:46:10.723Z,16.00
2018-12-19T12:48:43.268Z,14.17
2018-12-19T12:51:15.971Z,19.23
2018-12-19T12:53:48.522Z,15.80
2018-12-19T12:56:21.324Z,26.63
2018-12-19T12:58:53.866Z,17.27
2018-12-19T13:01:26.451Z,14.37
2018-12-19T13:03:59.104Z,14.43
2018-12-19T13:06:31.701Z,16.60
2018-12-19T13:09:07.046Z,13.93
2018-12-19T13:11:39.628Z,15.37
2018-12-19T13:14:12.312Z,13.67
2018-12-19T13:16:44.960Z,14.70
2018-12-19T13:19:17.511Z,13.20
2018-12-19T13:21:50.111Z,12.83
2018-12-19T13:24:22.658Z,13.50
2018-12-19T13:26:55.330Z,12.60
2018-12-19T13:29:27.901Z,13.50
2018-12-19T13:32:00.805Z,12.83
2018-12-19T13:34:33.353Z,13.37
2018-12-19T13:37:06.168Z,12.67
2018-12-19T13:39:38.707Z,12.90
2018-12-19T13:42:11.281Z,13.47
2018-12-19T13:44:43.823Z,13.27
2018-12-19T13:47:16.421Z,14.07
2018-12-19T13:49:48.972Z,12.87
2018-12-19T13:52:21.549Z,12.70
2018-12-19T13:54:54.090Z,12.77
2018-12-19T13:57:28.329Z,13.60
2018-12-19T14:00:01.073Z,12.93
2018-12-19T14:02:33.733Z,13.50
2018-12-19T14:05:06.399Z,13.00
2018-12-19T14:07:38.976Z,12.53
2018-12-19T14:10:11.537Z,13.30
2018-12-19T14:12:44.127Z,13.40
2018-12-19T14:15:16.691Z,14.00
2018-12-19T14:17:49.378Z,13.57
2018-12-19T14:20:21.934Z,13.33
2018-12-19T14:22:54.528Z,12.77
2018-12-19T14:25:27.078Z,12.97
2018-12-19T14:27:59.690Z,13.17
2018-12-19T14:30:32.239Z,14.00
2018-12-19T14:33:04.886Z,16.00
2018-12-19T14:35:37.446Z,14.67
2018-12-19T14:38:10.091Z,14.97
2018-12-19T14:40:42.636Z,15.70
2018-12-19T14:43:15.273Z,14.00
2018-12-19T14:45:47.824Z,13.90
2018-12-19T14:48:20.421Z,13.63
2018-12-19T14:50:53.070Z,14.53
2018-12-19T14:53:25.719Z,14.13
2018-12-19T14:55:58.536Z,15.30
2018-12-19T14:58:31.106Z,14.47
2018-12-19T15:01:03.780Z,13.53
2018-12-19T15:03:36.456Z,13.70
2018-12-19T15:06:09.144Z,14.87
2018-12-19T15:08:41.807Z,13.57
2018-12-19T15:11:14.350Z,14.53
2018-12-19T15:13:46.941Z,17.23
2018-12-19T15:16:21.583Z,18.43
2018-12-19T15:18:54.235Z,14.30
2018-12-19T15:21:26.794Z,13.47
2018-12-19T15:23:59.430Z,12.47
2018-12-19T15:26:31.994Z,13.10
2018-12-19T15:29:04.665Z,14.10
2018-12-19T15:31:37.338Z,13.73
2018-12-19T15:34:10.083Z,13.93
2018-12-19T15:36:42.632Z,14.10
2018-12-19T15:39:15.275Z,13.97
2018-12-19T15:41:47.813Z,13.77
2018-12-19T15:44:20.398Z,14.90
2018-12-19T15:46:52.962Z,13.60
2018-12-19T15:49:25.864Z,14.33
2018-12-19T15:51:58.428Z,15.00
2018-12-19T15:54:31.081Z,13.60
2018-12-19T15:57:03.634Z,14.40
2018-12-19T15:59:36.225Z,16.23
2018-12-19T16:02:08.766Z,14.67
2018-12-19T16:04:41.343Z,14.43
2018-12-19T16:07:13.935Z,15.07
2018-12-19T16:09:46.577Z,14.97
2018-12-19T16:12:19.274Z,15.00
2018-12-19T16:14:51.850Z,15.60
2018-12-19T16:17:24.453Z,15.83
2018-12-19T16:19:57.163Z,15.63
2018-12-19T16:22:31.176Z,15.67
2018-12-19T16:25:04.594Z,15.87
2018-12-19T16:27:37.286Z,16.10
2018-12-19T16:30:11.139Z,15.10
2018-12-19T16:32:43.964Z,13.90
2018-12-19T16:35:16.694Z,13.63
2018-12-19T16:37:49.595Z,13.47
2018-12-19T16:40:22.376Z,15.00
2018-12-19T16:42:55.510Z,14.47
2018-12-19T16:45:28.564Z,13.80
2018-12-19T16:48:01.244Z,13.07
2018-12-19T16:50:33.854Z,13.93
2018-12-19T16:53:06.444Z,13.97
2018-12-19T16:55:39.143Z,14.47
2018-12-19T16:58:11.713Z,15.47
2018-12-19T17:00:44.345Z,15.30
2018-12-19T17:03:16.930Z,14.40
2018-12-19T17:05:49.586Z,15.13
2018-12-19T17:08:22.143Z,14.67
2018-12-19T17:10:54.708Z,15.30
2018-12-19T17:13:27.265Z,14.13
2018-12-19T17:15:59.924Z,14.37
2018-12-19T17:18:32.456Z,13.90
2018-12-19T17:21:05.121Z,14.83
2018-12-19T17:23:37.692Z,13.80
2018-12-19T17:26:10.291Z,13.53
2018-12-19T17:28:42.847Z,14.27
2018-12-19T17:31:15.509Z,16.00
2018-12-19T17:33:48.078Z,14.67
2018-12-19T17:36:20.651Z,14.77
2018-12-19T17:38:53.246Z,15.50
2018-12-19T17:41:26.027Z,13.87
2018-12-19T17:43:58.576Z,14.60
2018-12-19T17:46:31.147Z,13.87
2018-12-19T17:49:03.745Z,14.23
2018-12-19T17:51:36.454Z,13.73
2018-12-19T17:54:09.012Z,13.67
2018-12-19T17:56:41.628Z,14.27
2018-12-19T17:59:14.175Z,14.77
2018-12-19T18:01:46.988Z,15.23
2018-12-19T18:04:19.512Z,15.80
2018-12-19T18:06:52.101Z,16.63
2018-12-19T18:09:24.794Z,15.57
2018-12-19T18:11:57.352Z,13.57
2018-12-19T18:14:29.885Z,15.07
2018-12-19T18:17:02.470Z,15.20
2018-12-19T18:19:35.060Z,16.43
2018-12-19T18:22:07.698Z,13.73
2018-12-19T18:24:40.263Z,14.50
2018-12-19T18:27:12.912Z,14.00
2018-12-19T18:29:45.449Z,14.17
2018-12-19T18:32:18.034Z,15.53
2018-12-19T18:34:50.703Z,14.13
2018-12-19T18:37:23.288Z,15.57
2018-12-19T18:39:55.862Z,14.73
2018-12-19T18:42:28.437Z,12.70
2018-12-19T18:45:00.994Z,16.30
2018-12-19T18:47:33.585Z,15.63
2018-12-19T18:50:07.440Z,16.27
2018-12-19T18:52:40.056Z,17.43
2018-12-19T18:55:12.788Z,16.73
2018-12-19T18:57:45.563Z,18.03
2018-12-19T19:00:20.264Z,17.47
2018-12-19T19:02:53.023Z,17.73
2018-12-19T19:05:25.711Z,16.67
2018-12-19T19:07:58.456Z,18.53
2018-12-19T19:10:31.080Z,16.40
2018-12-19T19:13:03.690Z,16.43
2018-12-19T19:15:36.261Z,16.73
2018-12-19T19:18:08.971Z,16.10
2018-12-19T19:20:41.558Z,17.27
2018-12-19T19:23:14.347Z,16.77
2018-12-19T19:25:47.272Z,19.53
2018-12-19T19:28:19.950Z,19.40
2018-12-19T19:30:52.527Z,21.03
2018-12-19T19:33:25.144Z,16.67
2018-12-19T19:35:57.684Z,17.87
2018-12-19T19:38:30.246Z,22.30
2018-12-19T19:41:02.795Z,18.13
2018-12-19T19:43:35.569Z,18.77
2018-12-19T19:46:08.138Z,21.13
2018-12-19T19:48:40.717Z,19.10
2018-12-19T19:51:16.942Z,22.30
2018-12-19T19:53:48.059Z,19.80
2018-12-19T19:56:20.644Z,19.67
2018-12-19T19:58:53.242Z,18.70
2018-12-19T20:01:25.852Z,19.57
2018-12-19T20:03:58.511Z,19.20
2018-12-19T20:06:31.070Z,18.10
2018-12-19T20:09:06.931Z,19.20
2018-12-19T20:11:39.548Z,19.77
2018-12-19T20:14:12.199Z,21.63
2018-12-19T20:16:50.683Z,19.17
2018-12-19T20:19:23.366Z,20.33
2018-12-19T20:21:55.944Z,22.67
2018-12-19T20:24:28.530Z,21.20
2018-12-19T20:27:01.073Z,21.70
2018-12-19T20:29:33.653Z,20.20
2018-12-19T20:32:06.478Z,20.10
2018-12-19T20:34:39.231Z,23.97
2018-12-19T20:37:11.786Z,22.70
2018-12-19T20:39:45.494Z,22.27
2018-12-19T20:42:18.247Z,22.67
2018-12-19T20:44:50.823Z,23.10
2018-12-19T20:47:23.353Z,21.57
2018-12-19T20:49:56.134Z,21.47
2018-12-19T20:52:28.732Z,20.87
2018-12-19T20:55:01.349Z,21.83
2018-12-19T20:57:33.910Z,20.57
2018-12-19T21:00:07.043Z,21.37
2018-12-19T21:02:39.593Z,21.13
2018-12-19T21:05:12.163Z,26.07
2018-12-19T21:07:44.753Z,22.00
2018-12-19T21:10:17.488Z,19.87
2018-12-19T21:12:50.035Z,20.00
2018-12-19T21:15:22.780Z,20.93
2018-12-19T21:21:04.907Z,19.83
2018-12-19T21:23:37.611Z,21.13
2018-12-19T21:26:11.361Z,18.13
2018-12-19T21:28:43.943Z,18.73
2018-12-19T21:31:16.772Z,19.77
2018-12-19T21:33:49.445Z,18.60
2018-12-19T21:36:22.090Z,18.50
2018-12-19T21:38:54.752Z,18.33
2018-12-19T21:41:27.433Z,17.87
2018-12-19T21:44:00.028Z,17.77
2018-12-19T21:46:32.770Z,18.87
2018-12-19T21:49:05.498Z,17.70
2018-12-19T21:51:38.185Z,21.13
2018-12-19T21:54:10.933Z,17.30
2018-12-19T21:56:43.493Z,18.63
2018-12-19T21:59:16.070Z,17.73
2018-12-19T22:01:48.652Z,17.60
2018-12-19T22:04:21.262Z,18.37
2018-12-19T22:06:54.039Z,19.80
2018-12-19T22:09:26.671Z,23.83
2018-12-19T22:11:59.889Z,23.43
2018-12-19T22:14:32.829Z,22.17
2018-12-19T22:17:11.644Z,21.03
2018-12-19T22:19:44.681Z,21.30
2018-12-19T22:22:18.266Z,21.00
2018-12-19T22:24:51.470Z,21.57
2018-12-19T22:27:24.361Z,21.40
2018-12-19T22:29:57.492Z,21.23
2018-12-19T22:32:30.575Z,20.50
2018-12-19T22:35:03.665Z,21.73
2018-12-19T22:37:36.859Z,20.13
2018-12-19T22:40:09.995Z,24.67
2018-12-19T22:42:43.170Z,20.27
2018-12-19T22:45:16.225Z,21.90
2018-12-19T22:47:49.118Z,20.70
2018-12-19T22:50:22.154Z,21.37
2018-12-19T22:52:54.736Z,21.60
2018-12-19T22:55:27.345Z,21.17
2018-12-19T22:57:59.963Z,20.67
2018-12-19T23:00:34.566Z,21.37
2018-12-19T23:03:08.103Z,23.17
2018-12-19T23:05:46.332Z,19.33
2018-12-19T23:08:19.834Z,19.60
2018-12-19T23:10:53.819Z,20.50
2018-12-19T23:13:28.187Z,18.53
2018-12-19T23:16:05.488Z,19.30
2018-12-19T23:18:42.378Z,62.23
2018-12-19T23:21:19.622Z,22.20
2018-12-19T23:23:56.187Z,19.00
2018-12-19T23:26:35.017Z,18.97
2018-12-19T23:29:15.303Z,20.07
2018-12-19T23:31:53.913Z,17.70
2018-12-19T23:34:30.202Z,22.97
2018-12-19T23:37:07.737Z,20.57
2018-12-19T23:39:47.825Z,20.23
2018-12-19T23:42:24.430Z,19.27
2018-12-19T23:45:04.701Z,20.67
2018-12-19T23:47:42.702Z,19.67
2018-12-19T23:50:23.308Z,20.10
2018-12-19T23:52:57.319Z,19.10
2018-12-19T23:55:30.787Z,25.50
2018-12-19T23:58:13.691Z,27.40
